Time;durP1;ratioP1;P1;durP2;ratioP2;P2;SDS_P1;SDS_P2;PMS_P1;PMS_P2;Temp;Humidity;BMP_temperature;BMP_pressure;BME280_temperature;BME280_humidity;BME280_pressure;Samples;Min_cycle;Max_cycle;Signal;HPM_P1;HPM_P2
2022/06/15 00:00:27;;;;;;;32.13;30.40;;;14.90;99.90;;;;;;4991509;28;20186;-70
2022/06/15 00:02:53;;;;;;;29.97;28.07;;;14.90;99.90;;;;;;4991367;28;20568;-70
2022/06/15 00:05:19;;;;;;;32.60;30.83;;;14.90;99.90;;;;;;4991545;28;20176;-70
2022/06/15 00:07:45;;;;;;;40.93;38.53;;;14.80;99.90;;;;;;4990336;28;20579;-70
2022/06/15 00:10:11;;;;;;;34.20;32.37;;;14.80;99.90;;;;;;4989980;28;20684;-70
2022/06/15 00:12:37;;;;;;;36.23;34.07;;;14.90;99.90;;;;;;4992108;28;20191;-70
2022/06/15 00:15:05;;;;;;;39.20;37.10;;;14.80;99.90;;;;;;4994174;28;20620;-70
2022/06/15 00:17:31;;;;;;;45.47;42.90;;;14.70;99.90;;;;;;4992956;28;20204;-70
2022/06/15 00:19:56;;;;;;;63.00;59.70;;;14.70;99.90;;;;;;4995094;28;20260;-71
2022/06/15 00:22:22;;;;;;;55.40;52.67;;;14.60;99.90;;;;;;4995337;28;20244;-70
2022/06/15 00:24:48;;;;;;;49.67;46.87;;;14.60;99.90;;;;;;4995364;28;20598;-70
2022/06/15 00:27:14;;;;;;;44.97;42.63;;;14.60;99.90;;;;;;4994305;28;20689;-70
2022/06/15 00:29:39;;;;;;;40.03;37.87;;;14.60;99.90;;;;;;4995046;28;20551;-70
2022/06/15 00:32:06;;;;;;;46.87;44.37;;;14.60;99.90;;;;;;4995213;28;20216;-72
2022/06/15 00:34:32;;;;;;;44.27;41.73;;;14.50;99.90;;;;;;4994169;28;20188;-71
2022/06/15 00:36:58;;;;;;;40.67;38.37;;;14.40;99.90;;;;;;4994189;28;20208;-72
2022/06/15 00:39:24;;;;;;;38.97;36.33;;;14.40;99.90;;;;;;4993561;28;20231;-72
2022/06/15 00:41:49;;;;;;;40.53;38.43;;;14.30;99.90;;;;;;4994762;28;20700;-72
2022/06/15 00:44:21;;;;;;;40.97;38.77;;;14.30;99.90;;;;;;4994770;28;20679;-72
2022/06/15 00:46:57;;;;;;;43.53;41.03;;;14.20;99.90;;;;;;4993063;28;20176;-72
2022/06/15 00:50:00;;;;;;;33.30;31.37;;;14.30;99.90;;;;;;4994607;28;20181;-72
2022/06/15 00:52:44;;;;;;;33.93;32.00;;;14.20;99.90;;;;;;4994045;28;20718;-72
2022/06/15 00:55:16;;;;;;;82.67;78.23;;;14.00;99.90;;;;;;4993636;28;20667;-72
2022/06/15 00:57:42;;;;;;;81.83;77.67;;;14.00;99.90;;;;;;4993371;28;20697;-72
2022/06/15 01:00:11;;;;;;;72.40;68.53;;;14.00;99.90;;;;;;4994707;28;20227;-72
2022/06/15 01:02:39;;;;;;;68.13;64.67;;;13.90;99.90;;;;;;4995069;28;20283;-71
2022/06/15 01:05:31;;;;;;;42.53;40.23;;;13.90;99.90;;;;;;4995983;28;20185;-72
2022/06/15 01:08:08;;;;;;;69.17;65.37;;;13.90;99.90;;;;;;4994865;28;20196;-72
2022/06/15 01:10:37;;;;;;;31.73;29.73;;;13.80;99.90;;;;;;4994744;28;20184;-72
2022/06/15 01:13:27;;;;;;;33.67;31.67;;;13.80;99.90;;;;;;4994960;28;20207;-72
2022/06/15 01:16:16;;;;;;;19.07;17.90;;;13.80;99.90;;;;;;4994503;28;20188;-71
2022/06/15 01:18:44;;;;;;;28.90;26.93;;;13.80;99.90;;;;;;4991792;28;20204;-71
2022/06/15 01:21:28;;;;;;;32.40;30.43;;;13.80;99.90;;;;;;4993804;28;20188;-72
2022/06/15 01:24:08;;;;;;;44.97;42.13;;;13.80;99.90;;;;;;4993319;28;20196;-72
2022/06/15 01:26:55;;;;;;;31.63;29.77;;;13.80;99.90;;;;;;4992971;28;20231;-73
2022/06/15 01:29:42;;;;;;;32.53;30.67;;;13.80;99.90;;;;;;4992198;28;20184;-71
2022/06/15 01:32:34;;;;;;;27.23;25.50;;;13.70;99.90;;;;;;4993868;28;20188;-72
2022/06/15 01:35:14;;;;;;;23.37;22.13;;;13.70;99.90;;;;;;4992738;28;20197;-71
2022/06/15 01:37:45;;;;;;;22.40;21.03;;;13.70;99.90;;;;;;4992806;28;20219;-72
2022/06/15 01:40:19;;;;;;;24.20;22.80;;;13.70;99.90;;;;;;4993896;28;20184;-72
2022/06/15 01:43:08;;;;;;;30.80;28.97;;;13.70;99.90;;;;;;4993761;28;20692;-71
2022/06/15 01:45:35;;;;;;;33.17;31.33;;;13.70;99.90;;;;;;4984742;28;20275;-71
2022/06/15 01:48:06;;;;;;;24.70;23.27;;;13.50;99.90;;;;;;4992218;28;20560;-71
2022/06/15 01:50:37;;;;;;;27.40;25.37;;;13.30;99.90;;;;;;4993785;28;20219;-71
2022/06/15 01:53:36;;;;;;;29.97;28.43;;;13.20;99.90;;;;;;4993456;28;20223;-71
2022/06/15 01:56:13;;;;;;;25.03;23.50;;;13.10;99.90;;;;;;4993629;28;20184;-71
2022/06/15 01:58:44;;;;;;;28.43;26.67;;;13.00;99.90;;;;;;4991186;28;20204;-71
2022/06/15 02:01:17;;;;;;;18.57;17.47;;;13.00;99.90;;;;;;4992216;28;20189;-71
2022/06/15 02:03:49;;;;;;;15.83;14.90;;;13.00;99.90;;;;;;4993463;28;20196;-71
2022/06/15 02:06:21;;;;;;;12.80;11.57;;;13.00;99.90;;;;;;4991869;28;20187;-73
2022/06/15 02:08:47;;;;;;;14.57;13.67;;;13.10;99.90;;;;;;4992064;28;20211;-72
2022/06/15 02:11:29;;;;;;;14.87;13.77;;;13.10;99.90;;;;;;4993217;28;20176;-72
2022/06/15 02:14:09;;;;;;;12.27;11.13;;;13.10;99.90;;;;;;4993338;28;20667;-73
2022/06/15 02:16:42;;;;;;;13.87;12.63;;;13.10;99.90;;;;;;4993108;28;20286;-72
2022/06/15 02:19:13;;;;;;;13.80;12.67;;;13.10;99.90;;;;;;4992428;28;20238;-72
2022/06/15 02:21:42;;;;;;;15.23;14.27;;;13.10;99.90;;;;;;4993050;28;20238;-72
2022/06/15 02:24:10;;;;;;;14.73;13.77;;;13.00;99.90;;;;;;4993124;28;20208;-72
2022/06/15 02:26:39;;;;;;;17.87;16.53;;;12.90;99.90;;;;;;4993138;28;20618;-72
2022/06/15 02:29:10;;;;;;;15.10;14.00;;;12.90;99.90;;;;;;4992278;28;20219;-72
2022/06/15 02:31:37;;;;;;;14.67;13.63;;;12.90;99.90;;;;;;4992967;28;20529;-73
2022/06/15 02:34:04;;;;;;;17.40;13.10;;;12.90;99.90;;;;;;4991757;28;20176;-72
2022/06/15 02:36:33;;;;;;;12.87;11.77;;;12.90;99.90;;;;;;4992602;28;20239;-72
2022/06/15 02:39:04;;;;;;;15.23;13.70;;;12.90;99.90;;;;;;4991483;28;20227;-72
2022/06/15 02:41:29;;;;;;;24.00;22.37;;;12.80;99.90;;;;;;4992718;28;20187;-72
2022/06/15 02:43:59;;;;;;;17.77;16.67;;;12.70;99.90;;;;;;4992678;28;20180;-72
2022/06/15 02:46:26;;;;;;;18.87;17.43;;;12.60;99.90;;;;;;4993104;28;20231;-72
2022/06/15 02:48:53;;;;;;;12.57;11.67;;;12.50;99.90;;;;;;4991882;28;20203;-73
2022/06/15 02:51:31;;;;;;;13.37;11.30;;;12.40;99.90;;;;;;4992967;28;20180;-72
2022/06/15 02:54:07;;;;;;;10.37;9.67;;;12.40;99.90;;;;;;4992495;28;20192;-74
2022/06/15 02:56:33;;;;;;;10.17;9.23;;;12.40;99.90;;;;;;4992489;28;20249;-72
2022/06/15 02:58:59;;;;;;;9.30;8.50;;;12.30;99.90;;;;;;4991244;28;20200;-72
2022/06/15 03:01:26;;;;;;;10.37;9.63;;;12.40;99.90;;;;;;4990865;28;20695;-72
2022/06/15 03:03:52;;;;;;;11.83;10.93;;;12.40;99.90;;;;;;4984433;28;20195;-72
2022/06/15 03:06:20;;;;;;;10.57;9.57;;;12.40;99.90;;;;;;4988056;28;20552;-71
2022/06/15 03:08:45;;;;;;;13.53;12.40;;;12.40;99.90;;;;;;4990859;28;20203;-72
2022/06/15 03:11:12;;;;;;;12.93;12.13;;;12.40;99.90;;;;;;4990746;28;20558;-72
2022/06/15 03:13:38;;;;;;;10.57;9.67;;;12.30;99.90;;;;;;4991821;28;20195;-72
2022/06/15 03:16:04;;;;;;;10.70;9.67;;;12.30;99.90;;;;;;4991065;28;20188;-71
2022/06/15 03:18:31;;;;;;;10.23;9.53;;;12.20;99.90;;;;;;4983038;28;20196;-72
2022/06/15 03:20:58;;;;;;;13.33;12.20;;;12.10;99.90;;;;;;4990694;28;20240;-73
2022/06/15 03:23:27;;;;;;;16.77;15.57;;;12.00;99.90;;;;;;4991348;28;20208;-72
2022/06/15 03:25:54;;;;;;;18.70;17.20;;;12.00;99.90;;;;;;4991760;28;20188;-72
2022/06/15 03:28:20;;;;;;;19.40;18.00;;;12.00;99.90;;;;;;4990271;28;20192;-72
2022/06/15 03:30:46;;;;;;;20.07;18.70;;;12.10;99.90;;;;;;4989958;28;20267;-72
2022/06/15 03:33:12;;;;;;;12.43;11.47;;;12.20;99.90;;;;;;4991495;28;20275;-72
2022/06/15 03:35:39;;;;;;;19.47;17.80;;;12.00;99.90;;;;;;4990045;28;20188;-72
2022/06/15 03:38:08;;;;;;;10.93;9.93;;;12.20;99.90;;;;;;4990680;28;20215;-72
2022/06/15 03:40:39;;;;;;;17.27;16.07;;;12.10;99.90;;;;;;4991495;28;20184;-72
2022/06/15 03:43:05;;;;;;;14.07;13.00;;;12.20;99.90;;;;;;4991449;28;20234;-72
2022/06/15 03:45:31;;;;;;;13.93;13.03;;;12.30;99.90;;;;;;4992007;28;20696;-72
2022/06/15 03:47:57;;;;;;;11.63;10.83;;;12.20;99.90;;;;;;4990214;28;20247;-72
2022/06/15 03:50:24;;;;;;;8.60;7.93;;;12.20;99.90;;;;;;4991867;28;20204;-72
2022/06/15 03:52:51;;;;;;;9.60;8.67;;;12.30;99.90;;;;;;4987646;28;20200;-75
2022/06/15 03:55:18;;;;;;;9.57;8.77;;;12.20;99.90;;;;;;4990751;28;20246;-74
2022/06/15 03:57:44;;;;;;;9.13;8.23;;;12.10;99.90;;;;;;4990755;28;20568;-71
2022/06/15 04:00:14;;;;;;;13.50;8.77;;;12.10;99.90;;;;;;4991074;28;20195;-71
2022/06/15 04:02:40;;;;;;;9.47;8.67;;;12.20;99.90;;;;;;4991114;28;20584;-71
2022/06/15 04:05:06;;;;;;;9.10;8.33;;;12.30;99.90;;;;;;4990695;28;20180;-71
2022/06/15 04:10:16;;;;;;;11.67;8.93;;;12.30;99.90;;;;;;4990451;28;20215;-72
2022/06/15 04:12:44;;;;;;;10.27;9.27;;;12.40;99.90;;;;;;4990949;28;20203;-72
2022/06/15 04:15:11;;;;;;;10.17;9.37;;;12.50;99.90;;;;;;4991328;28;20605;-72
2022/06/15 04:17:38;;;;;;;10.30;9.43;;;12.60;99.90;;;;;;4989546;28;20204;-73
2022/06/15 04:22:53;;;;;;;9.67;8.97;;;12.70;99.90;;;;;;4991068;28;20660;-73
2022/06/15 04:25:19;;;;;;;11.07;10.07;;;12.80;99.90;;;;;;4989598;28;20268;-73
2022/06/15 04:27:45;;;;;;;12.33;11.47;;;12.80;99.90;;;;;;4990166;28;20271;-72
2022/06/15 04:30:13;;;;;;;13.40;12.40;;;12.90;99.90;;;;;;4990346;28;20235;-71
2022/06/15 04:32:39;;;;;;;13.30;12.00;;;12.90;99.90;;;;;;4989318;28;20671;-71
2022/06/15 04:35:05;;;;;;;13.83;12.47;;;13.00;99.90;;;;;;4991948;28;20660;-72
2022/06/15 04:37:31;;;;;;;18.57;17.47;;;13.00;99.90;;;;;;4990463;28;20243;-72
2022/06/15 04:39:56;;;;;;;17.97;16.63;;;13.00;99.90;;;;;;4990971;28;20180;-72
2022/06/15 04:42:22;;;;;;;15.80;14.30;;;13.00;99.90;;;;;;4991719;28;20235;-72
2022/06/15 04:44:48;;;;;;;49.80;47.00;;;13.20;99.90;;;;;;4992406;28;20227;-72
2022/06/15 04:47:14;;;;;;;126.67;119.60;;;13.30;99.90;;;;;;4990078;28;20204;-74
2022/06/15 04:49:40;;;;;;;141.47;134.17;;;13.40;99.90;;;;;;4990965;28;20177;-73
2022/06/15 04:52:06;;;;;;;41.03;38.57;;;13.60;99.90;;;;;;4990552;28;20185;-74
2022/06/15 04:54:32;;;;;;;8.63;7.93;;;13.70;99.90;;;;;;4990951;28;20274;-73
2022/06/15 04:56:57;;;;;;;8.77;8.17;;;13.90;99.90;;;;;;4988111;28;20792;-74
2022/06/15 04:59:23;;;;;;;8.87;8.07;;;14.10;99.90;;;;;;4992813;28;20271;-73
2022/06/15 05:01:49;;;;;;;17.13;15.77;;;14.40;99.90;;;;;;4993048;28;20208;-73
2022/06/15 05:04:15;;;;;;;45.83;43.23;;;14.70;99.90;;;;;;4993799;28;20548;-73
2022/06/15 05:06:41;;;;;;;15.60;14.43;;;15.10;99.90;;;;;;4992675;28;20184;-71
2022/06/15 05:09:11;;;;;;;67.97;64.23;;;15.70;99.90;;;;;;4994041;28;20204;-71
2022/06/15 05:11:37;;;;;;;13.50;12.43;;;16.40;99.90;;;;;;4993207;28;20264;-74
2022/06/15 05:14:03;;;;;;;8.90;8.10;;;17.30;99.90;;;;;;4994546;28;20230;-71
2022/06/15 05:16:29;;;;;;;18.53;17.17;;;18.00;99.90;;;;;;4994558;28;20184;-72
2022/06/15 05:18:55;;;;;;;12.95;12.05;;;18.70;99.90;;;;;;4992684;28;20208;-72
2022/06/15 05:21:21;;;;;;;19.77;18.27;;;19.30;99.90;;;;;;4993118;28;20288;-72
2022/06/15 05:23:47;;;;;;;22.60;21.33;;;19.60;99.90;;;;;;4993875;28;20301;-72
2022/06/15 05:26:13;;;;;;;28.63;27.15;;;20.10;99.90;;;;;;4992268;28;20184;-72
2022/06/15 05:28:41;;;;;;;28.30;26.73;;;20.50;99.90;;;;;;4993114;28;20196;-73
2022/06/15 05:31:17;;;;;;;32.20;30.35;;;20.80;99.90;;;;;;4994323;28;20247;-73
2022/06/15 05:33:44;;;;;;;22.75;21.38;;;21.00;99.90;;;;;;4991630;28;20191;-73
2022/06/15 05:36:14;;;;;;;13.43;12.63;;;21.20;99.90;;;;;;4993785;28;20272;-72
2022/06/15 05:38:40;;;;;;;8.40;7.60;;;21.50;99.90;;;;;;4992541;28;20215;-72
2022/06/15 05:41:07;;;;;;;10.43;9.63;;;22.00;99.90;;;;;;4991765;28;20187;-73
2022/06/15 05:43:35;;;;;;;11.52;10.40;;;22.30;99.90;;;;;;4993269;28;20224;-73
2022/06/15 05:46:20;;;;;;;7.95;7.15;;;22.50;99.90;;;;;;4992505;28;20219;-73
2022/06/15 05:48:46;;;;;;;6.70;6.20;;;23.20;99.90;;;;;;4991711;28;20200;-73
2022/06/15 05:51:11;;;;;;;7.75;7.05;;;23.20;99.90;;;;;;4992212;28;20187;-72
2022/06/15 05:53:37;;;;;;;6.85;6.20;;;23.30;99.90;;;;;;4993069;28;20230;-73
2022/06/15 05:56:03;;;;;;;10.30;9.48;;;23.00;99.90;;;;;;4992457;28;20653;-73
2022/06/15 05:58:29;;;;;;;16.88;15.75;;;23.20;99.90;;;;;;4992570;28;20850;-72
2022/06/15 06:00:55;;;;;;;19.52;18.17;;;23.60;99.90;;;;;;4993210;28;20559;-73
2022/06/15 06:03:21;;;;;;;20.13;18.83;;;24.00;99.90;;;;;;4991073;28;20582;-73
2022/06/15 06:05:46;;;;;;;12.40;11.40;;;24.20;99.90;;;;;;4993956;28;20267;-72
2022/06/15 06:08:12;;;;;;;13.52;12.50;;;24.10;99.90;;;;;;4992219;28;20200;-72
2022/06/15 06:10:38;;;;;;;12.27;11.48;;;24.20;99.90;;;;;;4991917;28;20180;-73
2022/06/15 06:13:04;;;;;;;14.10;12.75;;;24.40;99.60;;;;;;4992708;28;20247;-73
2022/06/15 06:15:31;;;;;;;8.32;7.53;;;24.70;99.60;;;;;;4992774;28;20183;-72
2022/06/15 06:18:01;;;;;;;8.80;7.90;;;24.90;98.20;;;;;;4991062;28;20219;-73
2022/06/15 06:20:27;;;;;;;7.50;6.85;;;25.10;97.40;;;;;;4991845;28;20184;-72
2022/06/15 06:22:53;;;;;;;9.07;8.30;;;25.40;97.30;;;;;;4992542;28;20211;-73
2022/06/15 06:25:20;;;;;;;8.50;7.07;;;25.90;95.40;;;;;;4992212;28;20250;-73
2022/06/15 06:27:45;;;;;;;6.75;6.10;;;26.20;95.30;;;;;;4990438;28;20204;-74
2022/06/15 06:30:13;;;;;;;8.85;7.38;;;26.30;93.70;;;;;;4992250;28;20191;-74
2022/06/15 06:32:38;;;;;;;16.25;15.02;;;26.50;93.20;;;;;;4989861;28;20359;-75
2022/06/15 06:35:05;;;;;;;21.65;20.00;;;26.60;92.90;;;;;;4991029;28;20188;-74
2022/06/15 06:37:35;;;;;;;19.20;17.92;;;27.20;91.30;;;;;;4990709;28;20222;-75
2022/06/15 06:40:01;;;;;;;12.45;11.63;;;26.90;90.20;;;;;;4992623;28;20243;-74
2022/06/15 06:42:27;;;;;;;12.15;11.02;;;26.70;89.60;;;;;;4992564;28;20688;-73
2022/06/15 06:44:52;;;;;;;10.00;9.02;;;26.50;89.30;;;;;;4992602;28;20242;-74
2022/06/15 06:47:18;;;;;;;13.23;12.25;;;26.40;89.30;;;;;;4991783;28;20696;-73
2022/06/15 06:49:44;;;;;;;18.33;16.80;;;26.40;90.60;;;;;;4984098;28;20191;-73
2022/06/15 06:52:10;;;;;;;15.77;14.73;;;27.10;89.50;;;;;;4973692;28;20185;-73
2022/06/15 06:54:36;;;;;;;17.17;16.08;;;27.60;86.40;;;;;;4972606;28;20231;-74
2022/06/15 06:57:01;;;;;;;17.45;16.30;;;28.00;86.20;;;;;;4990086;28;20180;-75
2022/06/15 06:59:28;;;;;;;24.25;22.17;;;28.20;81.70;;;;;;4991990;28;20657;-75
2022/06/15 07:01:53;;;;;;;27.05;25.45;;;28.10;78.50;;;;;;4992019;28;20223;-73
2022/06/15 07:04:20;;;;;;;21.77;20.58;;;27.90;80.10;;;;;;4991366;28;20184;-73
2022/06/15 07:06:46;;;;;;;21.98;20.30;;;27.60;78.70;;;;;;4991409;28;20176;-74
2022/06/15 07:09:13;;;;;;;22.98;21.77;;;27.80;82.00;;;;;;4989661;28;20583;-74
2022/06/15 07:11:42;;;;;;;17.92;16.92;;;28.30;80.60;;;;;;4991189;28;20207;-74
2022/06/15 07:14:08;;;;;;;16.30;15.38;;;28.90;74.40;;;;;;4992307;28;20172;-74
2022/06/15 07:16:35;;;;;;;18.80;17.40;;;29.40;76.00;;;;;;4991998;28;20183;-75
2022/06/15 07:19:01;;;;;;;25.40;23.83;;;29.70;73.10;;;;;;4991325;28;20204;-74
2022/06/15 07:21:28;;;;;;;26.30;24.70;;;29.70;68.10;;;;;;4990763;28;20176;-74
2022/06/15 07:23:57;;;;;;;26.25;24.80;;;29.30;71.10;;;;;;4991136;28;20219;-75
2022/06/15 07:26:33;;;;;;;28.50;26.95;;;29.40;71.70;;;;;;4991895;28;20183;-75
2022/06/15 07:29:00;;;;;;;26.10;24.70;;;29.80;68.50;;;;;;4991079;28;20262;-74
2022/06/15 07:31:33;;;;;;;30.30;28.75;;;29.60;67.70;;;;;;4991857;28;20764;-74
2022/06/15 07:33:59;;;;;;;31.17;29.42;;;29.80;69.10;;;;;;4990584;28;20184;-74
2022/06/15 07:36:25;;;;;;;29.92;28.33;;;29.90;66.20;;;;;;4989892;28;20180;-75
2022/06/15 07:38:55;;;;;;;25.17;23.90;;;29.70;67.20;;;;;;4989719;28;20315;-74
2022/06/15 07:41:23;;;;;;;20.65;19.45;;;29.80;65.70;;;;;;4990560;28;20188;-74
2022/06/15 07:43:49;;;;;;;21.35;20.13;;;29.80;64.00;;;;;;4988339;28;20246;-76
2022/06/15 07:46:16;;;;;;;34.42;32.63;;;29.70;65.60;;;;;;4984120;28;20275;-75
2022/06/15 07:51:33;;;;;;;19.02;17.73;;;30.30;63.10;;;;;;4992521;28;20239;-74
2022/06/15 07:54:00;;;;;;;19.23;18.05;;;29.60;63.60;;;;;;4990845;28;20283;-75
2022/06/15 07:56:26;;;;;;;28.33;26.48;;;29.50;64.20;;;;;;4991830;28;20176;-74
2022/06/15 07:58:52;;;;;;;25.58;24.00;;;29.60;64.50;;;;;;4989995;28;20692;-74
2022/06/15 08:01:18;;;;;;;30.65;28.73;;;29.80;65.30;;;;;;4990740;28;20180;-74
2022/06/15 08:03:44;;;;;;;25.25;23.85;;;30.20;65.50;;;;;;4974824;28;20212;-74
2022/06/15 08:06:10;;;;;;;31.40;29.67;;;30.70;64.80;;;;;;4971077;28;20235;-74
2022/06/15 08:08:36;;;;;;;26.00;24.42;;;30.60;64.50;;;;;;4971149;28;20201;-74
2022/06/15 08:11:02;;;;;;;37.50;35.42;;;30.30;63.50;;;;;;4972263;28;20188;-75
2022/06/15 08:13:28;;;;;;;37.33;35.28;;;30.00;65.40;;;;;;4971159;28;20304;-75
2022/06/15 08:15:54;;;;;;;35.80;33.40;;;29.90;66.00;;;;;;4970586;28;20180;-75
2022/06/15 08:18:28;;;;;;;38.70;36.55;;;30.00;64.80;;;;;;4980857;28;20216;-75
2022/06/15 08:21:00;;;;;;;25.00;23.50;;;30.50;64.60;;;;;;4982120;28;20184;-76
2022/06/15 08:23:31;;;;;;;20.88;19.60;;;30.90;62.60;;;;;;4990614;28;20294;-74
2022/06/15 08:26:00;;;;;;;17.60;16.58;;;30.70;63.00;;;;;;4991012;28;20275;-75
2022/06/15 08:28:36;;;;;;;16.05;14.75;;;30.90;62.50;;;;;;4989834;28;20208;-74
2022/06/15 08:31:03;;;;;;;15.20;14.02;;;31.00;62.70;;;;;;4991042;28;20184;-74
2022/06/15 08:33:29;;;;;;;19.42;18.10;;;30.90;62.70;;;;;;4991250;28;20180;-75
2022/06/15 08:35:55;;;;;;;26.83;25.33;;;30.50;61.30;;;;;;4994117;28;20188;-74
2022/06/15 08:38:23;;;;;;;26.67;25.13;;;30.50;62.30;;;;;;4992426;28;20216;-74
2022/06/15 08:40:51;;;;;;;20.35;19.00;;;31.00;63.20;;;;;;4993490;28;20185;-74
2022/06/15 08:43:29;;;;;;;20.00;18.73;;;31.40;61.70;;;;;;4994217;28;20218;-75
2022/06/15 08:46:01;;;;;;;37.17;34.90;;;31.80;59.50;;;;;;4993422;28;20184;-72
2022/06/15 08:48:56;;;;;;;40.10;37.80;;;32.00;60.00;;;;;;4992427;28;20201;-74
2022/06/15 08:51:36;;;;;;;39.67;37.42;;;32.00;60.30;;;;;;4993491;28;20176;-73
2022/06/15 08:54:04;;;;;;;34.20;32.30;;;31.70;59.80;;;;;;4994358;28;20193;-73
2022/06/15 08:56:52;;;;;;;24.38;22.88;;;31.20;60.80;;;;;;4994691;28;20190;-73
2022/06/15 08:59:49;;;;;;;22.20;20.75;;;31.00;62.40;;;;;;4993179;28;20247;-73
2022/06/15 09:02:41;;;;;;;26.73;25.25;;;31.20;59.60;;;;;;4989351;28;20220;-74
2022/06/15 09:05:32;;;;;;;24.85;23.40;;;31.50;60.60;;;;;;4994511;28;20184;-75
2022/06/15 09:08:03;;;;;;;30.17;28.48;;;31.80;60.30;;;;;;4993363;28;20230;-73
2022/06/15 09:10:53;;;;;;;25.40;23.88;;;32.20;58.50;;;;;;4994365;28;20181;-74
2022/06/15 09:13:31;;;;;;;25.05;23.52;;;32.40;58.50;;;;;;4994307;28;20275;-73
2022/06/15 09:16:22;;;;;;;19.88;18.58;;;32.20;57.90;;;;;;4993961;28;20645;-74
2022/06/15 09:19:16;;;;;;;31.25;29.48;;;32.30;57.80;;;;;;4992071;28;20204;-74
2022/06/15 09:21:49;;;;;;;24.23;22.85;;;32.40;58.00;;;;;;4994031;28;20192;-74
2022/06/15 09:24:58;;;;;;;23.10;21.80;;;32.40;58.30;;;;;;4994102;28;20181;-74
2022/06/15 09:27:29;;;;;;;21.00;19.88;;;32.60;58.60;;;;;;4990567;28;20195;-74
2022/06/15 09:29:58;;;;;;;40.03;37.97;;;32.80;56.70;;;;;;4991554;28;20184;-74
2022/06/15 09:32:47;;;;;;;50.17;47.58;;;33.00;56.00;;;;;;4983307;28;20223;-74
2022/06/15 09:35:27;;;;;;;93.78;89.25;;;33.10;55.80;;;;;;4993548;28;20199;-74
2022/06/15 09:37:56;;;;;;;90.90;86.35;;;33.20;54.80;;;;;;4992473;28;20239;-73
2022/06/15 09:40:36;;;;;;;104.30;99.05;;;33.30;54.10;;;;;;4993699;28;20271;-74
2022/06/15 09:43:12;;;;;;;119.15;113.30;;;33.20;54.60;;;;;;4993214;28;20259;-74
2022/06/15 09:45:46;;;;;;;128.95;122.43;;;33.30;54.00;;;;;;4992514;28;20191;-74
2022/06/15 09:48:20;;;;;;;157.20;149.63;;;33.50;54.90;;;;;;4992543;28;20279;-74
2022/06/15 09:51:09;;;;;;;190.55;181.20;;;33.50;53.90;;;;;;4993555;28;20191;-74
2022/06/15 09:53:56;;;;;;;195.68;186.02;;;33.50;52.90;;;;;;4981793;28;20196;-74
2022/06/15 09:56:23;;;;;;;133.85;127.43;;;33.70;54.00;;;;;;4993806;28;20554;-73
2022/06/15 09:58:57;;;;;;;137.80;131.10;;;33.80;51.10;;;;;;4992319;28;20200;-74
2022/06/15 10:01:25;;;;;;;122.20;115.88;;;34.00;51.20;;;;;;4993461;28;20738;-74
2022/06/15 10:03:53;;;;;;;93.97;89.18;;;33.80;51.10;;;;;;4987355;28;20204;-74
2022/06/15 10:07:00;;;;;;;173.13;164.70;;;33.80;50.90;;;;;;4978749;28;20207;-74
2022/06/15 10:09:30;;;;;;;153.60;146.10;;;33.50;52.10;;;;;;4951921;28;20186;-74
2022/06/15 10:15:07;;;;;;;109.43;104.03;;;34.00;51.30;;;;;;4902366;29;20195;-74
2022/06/15 10:17:39;;;;;;;127.28;120.93;;;34.40;51.50;;;;;;4894574;29;20208;-74
2022/06/15 10:20:05;;;;;;;116.60;111.03;;;34.40;51.60;;;;;;4926308;28;20256;-74
2022/06/15 10:22:37;;;;;;;88.95;84.60;;;34.20;52.00;;;;;;4979456;28;20650;-74
2022/06/15 10:25:04;;;;;;;74.55;70.93;;;34.70;51.80;;;;;;4993127;28;20279;-74
2022/06/15 10:27:40;;;;;;;76.28;72.60;;;35.10;50.20;;;;;;4990581;28;20200;-74
2022/06/15 10:30:09;;;;;;;67.45;64.25;;;35.60;47.00;;;;;;4992219;28;20194;-74
2022/06/15 10:32:59;;;;;;;68.35;65.00;;;35.90;49.70;;;;;;4993178;28;20234;-73
2022/06/15 10:35:26;;;;;;;62.45;59.40;;;35.50;49.10;;;;;;4990212;28;20185;-74
2022/06/15 10:38:04;;;;;;;78.18;74.20;;;35.40;49.70;;;;;;5014529;22;20216;-72
2022/06/15 10:40:35;;;;;;;77.93;74.13;;;35.60;48.50;;;;;;5011690;28;20400;-71
2022/06/15 10:43:16;;;;;;;76.25;72.32;;;35.00;50.00;;;;;;5011825;28;20683;-71
2022/06/15 10:45:58;;;;;;;119.78;114.05;;;35.20;48.70;;;;;;5011747;28;20236;-71
2022/06/15 10:48:40;;;;;;;95.03;90.50;;;35.70;47.90;;;;;;4996697;28;20215;-70
2022/06/15 10:51:29;;;;;;;75.45;71.82;;;35.90;46.40;;;;;;5011377;28;20180;-70
2022/06/15 10:54:14;;;;;;;39.58;36.88;;;36.00;45.40;;;;;;5011948;28;20179;-70
2022/06/15 11:02:33;;;;;;;57.03;54.17;;;36.40;47.20;;;;;;5026329;28;20210;-72
2022/06/15 11:05:09;;;;;;;29.92;28.17;;;36.40;44.80;;;;;;5028310;28;20310;-71
2022/06/15 11:07:48;;;;;;;17.83;16.73;;;36.40;44.70;;;;;;5010183;28;20175;-71
2022/06/15 11:10:36;;;;;;;18.10;17.10;;;36.70;46.20;;;;;;5011376;28;20187;-70
2022/06/15 11:13:06;;;;;;;13.30;12.52;;;36.60;45.50;;;;;;5011482;28;20188;-73
2022/06/15 11:18:40;;;;;;;28.08;26.65;;;36.40;44.60;;;;;;5024198;28;20252;-72
2022/06/15 11:21:19;;;;;;;27.73;26.17;;;36.20;46.80;;;;;;5030643;28;20947;-71
2022/06/15 11:23:54;;;;;;;14.40;13.32;;;36.20;46.00;;;;;;5050942;28;20202;-72
2022/06/15 11:29:40;;;;;;;7.60;6.72;;;36.70;44.60;;;;;;5029693;28;20218;-71
2022/06/15 11:32:18;;;;;;;9.50;8.73;;;36.50;45.40;;;;;;5030864;28;20187;-71
2022/06/15 11:35:13;;;;;;;5.70;4.97;;;36.90;44.50;;;;;;5030886;28;20265;-71
2022/06/15 11:38:12;;;;;;;3.78;3.45;;;36.90;43.40;;;;;;5028759;28;20566;-80
2022/06/15 11:40:57;;;;;;;7.32;5.35;;;37.10;43.50;;;;;;5031304;28;20187;-77
2022/06/15 11:43:30;;;;;;;6.32;5.63;;;37.60;42.90;;;;;;5031025;28;20303;-76
2022/06/15 11:46:20;;;;;;;4.95;4.53;;;37.40;44.00;;;;;;5032091;28;20304;-83
2022/06/15 11:48:53;;;;;;;4.55;4.15;;;37.20;43.90;;;;;;5032029;28;20257;-82
2022/06/15 11:51:46;;;;;;;3.95;3.72;;;37.30;41.70;;;;;;5030698;28;20206;-85
2022/06/15 11:54:33;;;;;;;3.90;3.55;;;38.30;40.60;;;;;;5040360;28;20195;-79
2022/06/15 11:57:24;;;;;;;4.28;3.90;;;38.30;41.70;;;;;;5043879;28;20194;-83
2022/06/15 12:00:08;;;;;;;5.07;3.42;;;38.40;41.10;;;;;;5031538;28;20756;-84
2022/06/15 12:02:52;;;;;;;3.63;3.33;;;38.70;39.30;;;;;;5033944;28;20222;-84
2022/06/15 12:05:32;;;;;;;5.93;3.47;;;38.30;41.40;;;;;;5040415;28;20198;-84
2022/06/15 12:08:12;;;;;;;3.63;3.38;;;38.20;40.20;;;;;;5032881;28;20206;-85
2022/06/15 12:10:52;;;;;;;4.47;4.18;;;38.80;39.20;;;;;;5038331;28;20233;-77
2022/06/15 12:13:23;;;;;;;4.43;4.13;;;38.90;38.60;;;;;;5038741;28;20651;-80
2022/06/15 12:15:59;;;;;;;3.90;3.47;;;37.60;39.90;;;;;;5039653;28;20179;-81
2022/06/15 12:18:53;;;;;;;3.47;3.28;;;37.40;40.70;;;;;;5027415;28;20585;-76
2022/06/15 12:21:32;;;;;;;3.47;3.17;;;36.90;40.40;;;;;;5032844;28;20253;-77
2022/06/15 12:24:30;;;;;;;3.30;3.10;;;37.00;41.80;;;;;;5037456;28;20283;-81
2022/06/15 12:27:12;;;;;;;3.53;3.28;;;37.30;40.80;;;;;;5033899;28;20183;-84
2022/06/15 12:29:50;;;;;;;3.97;3.67;;;37.30;39.90;;;;;;5038203;28;20202;-86
2022/06/15 12:32:58;;;;;;;4.95;4.55;;;37.80;40.60;;;;;;5034770;28;20583;-76
2022/06/15 12:35:39;;;;;;;4.05;3.85;;;38.20;38.70;;;;;;5039915;28;20599;-84
2022/06/15 12:38:23;;;;;;;4.15;3.80;;;38.30;36.50;;;;;;5016580;28;20223;-83
2022/06/15 12:40:55;;;;;;;3.95;3.70;;;38.50;38.40;;;;;;5014987;28;20187;-78
2022/06/15 12:43:31;;;;;;;3.30;3.00;;;39.50;37.10;;;;;;5014489;28;20627;-77
2022/06/15 12:46:14;;;;;;;5.40;3.58;;;39.60;36.20;;;;;;5016082;28;20524;-84
2022/06/15 12:48:52;;;;;;;3.72;3.42;;;39.40;36.10;;;;;;5035211;28;20206;-84
2022/06/15 12:51:50;;;;;;;4.15;3.85;;;39.50;35.30;;;;;;5036567;28;20190;-84
2022/06/15 12:54:41;;;;;;;3.83;3.60;;;38.70;35.10;;;;;;5033453;28;20202;-85
2022/06/15 12:57:17;;;;;;;3.83;3.63;;;38.60;34.60;;;;;;5037945;28;20179;-82
2022/06/15 13:00:16;;;;;;;3.20;2.97;;;38.90;35.20;;;;;;5037450;28;20206;-82
2022/06/15 13:02:58;;;;;;;5.47;4.97;;;39.50;35.30;;;;;;5047392;28;20309;-80
2022/06/15 13:05:31;;;;;;;4.47;4.18;;;40.20;34.30;;;;;;5034019;28;20206;-76
2022/06/15 13:08:12;;;;;;;3.17;3.08;;;40.40;33.30;;;;;;5032659;28;20180;-81
2022/06/15 13:10:53;;;;;;;3.10;2.97;;;40.80;31.70;;;;;;5029502;28;20191;-80
2022/06/15 13:13:44;;;;;;;3.40;3.10;;;40.70;33.10;;;;;;5015384;28;20195;-77
2022/06/15 13:16:14;;;;;;;4.00;3.22;;;40.40;32.70;;;;;;5016236;28;20191;-82
2022/06/15 13:18:53;;;;;;;3.30;2.88;;;39.70;33.60;;;;;;5042707;28;20207;-83
2022/06/15 13:21:25;;;;;;;3.72;2.90;;;40.10;31.80;;;;;;5036471;28;20290;-83